Laura, Illinois
Current Conditions -  °F | °C
As of 9:54 AM on Friday 24 Oct 2014 (Local Time) from KPIA Reporting Station
Moderate Fog Moderate Fog  
Wind Chill: 53°   Ceiling: 200
Heat Index: 53°   Visibility: 0.12mi
Dew Point: 51°   Wind: 3mph
Humidity: 93%   Direction: 220°SW
Pressure: 30.09"   Gusts: NA
Location:  40.92°N, 89.93°W
Report Text: KPIA 241454Z 22003KT 1/8SM R13/1200V2000FT FG VV002 12/11 A3009 RMK AO2 SLP191 T01170106 50006
Loading
Personal Weather Stations






























Interactive Weather Map
Tropical Storm Tracking
New forecast layout! Learn more

10-Day Weather Forecast

Advertisements
Track Severe Weather on mobile